createdAt,value
2022-12-13T00:02:14.437Z,15.57
2022-12-13T00:07:16.141Z,14.30
2022-12-13T00:12:19.059Z,14.37
2022-12-13T00:17:20.840Z,13.73
2022-12-13T00:22:22.495Z,13.03
2022-12-13T00:27:24.228Z,12.63
2022-12-13T00:32:25.925Z,12.43
2022-12-13T00:37:27.591Z,13.27
2022-12-13T00:42:29.240Z,12.37
2022-12-13T00:47:30.917Z,13.73
2022-12-13T00:52:34.661Z,11.47
2022-12-13T00:57:36.425Z,12.13
2022-12-13T01:02:38.198Z,12.43
2022-12-13T01:07:44.499Z,14.07
2022-12-13T01:12:47.259Z,12.37
2022-12-13T01:17:49.521Z,14.37
2022-12-13T01:22:51.184Z,14.90
2022-12-13T01:27:52.865Z,17.37
2022-12-13T01:32:54.644Z,16.23
2022-12-13T01:37:56.300Z,16.77
2022-12-13T01:43:00.016Z,14.63
2022-12-13T01:48:07.603Z,15.13
2022-12-13T01:53:14.919Z,16.33
2022-12-13T01:58:17.517Z,18.77
2022-12-13T02:03:22.150Z,17.77
2022-12-13T02:08:25.480Z,16.93
2022-12-13T02:13:27.243Z,18.10
2022-12-13T02:18:50.491Z,15.47
2022-12-13T02:24:13.844Z,15.40
2022-12-13T02:30:03.106Z,17.40
2022-12-13T02:35:29.556Z,14.87
2022-12-13T02:40:39.679Z,17.27
2022-12-13T02:45:46.712Z,17.03
2022-12-13T02:50:49.950Z,19.47
2022-12-13T02:55:51.688Z,17.50
2022-12-13T03:01:27.970Z,18.60
2022-12-13T03:06:34.749Z,17.17
2022-12-13T03:12:32.412Z,18.77
2022-12-13T03:17:44.145Z,17.70
2022-12-13T03:22:45.859Z,20.93
2022-12-13T03:27:47.534Z,16.03
2022-12-13T03:32:49.206Z,18.43
2022-12-13T03:37:51.350Z,19.23
2022-12-13T03:42:53.016Z,19.47
2022-12-13T03:47:54.673Z,17.43
2022-12-13T03:53:04.008Z,21.67
2022-12-13T03:58:07.964Z,19.97
2022-12-13T04:03:09.983Z,17.77
2022-12-13T04:08:21.551Z,17.67
2022-12-13T04:13:35.108Z,17.20
2022-12-13T04:18:36.798Z,15.83
2022-12-13T04:23:38.504Z,18.97
2022-12-13T04:28:40.185Z,16.43
2022-12-13T04:33:41.845Z,17.33
2022-12-13T04:38:43.530Z,15.53
2022-12-13T04:43:50.193Z,17.67
2022-12-13T04:48:51.871Z,15.77
2022-12-13T04:53:53.580Z,15.73
2022-12-13T04:58:55.293Z,16.07
2022-12-13T05:03:57.064Z,16.93
2022-12-13T05:09:00.627Z,17.87
2022-12-13T05:14:02.842Z,16.00
2022-12-13T05:19:04.671Z,15.43
2022-12-13T05:24:06.936Z,15.33
2022-12-13T05:29:08.649Z,14.90
2022-12-13T05:34:10.328Z,13.60
2022-12-13T05:39:29.401Z,14.53
2022-12-13T05:44:32.743Z,14.67
2022-12-13T05:49:34.508Z,15.33
2022-12-13T05:54:36.222Z,13.40
2022-12-13T05:59:37.880Z,14.43
2022-12-13T06:04:39.583Z,12.37
2022-12-13T06:09:41.559Z,14.03
2022-12-13T06:14:43.208Z,13.87
2022-12-13T06:19:46.477Z,20.45
2022-12-13T06:24:48.162Z,15.37
2022-12-13T06:29:49.953Z,15.63
2022-12-13T06:34:51.617Z,13.53
2022-12-13T06:39:53.314Z,14.13
2022-12-13T06:44:56.246Z,14.20
2022-12-13T06:49:58.121Z,12.03
2022-12-13T06:55:07.790Z,15.03
2022-12-13T07:00:10.343Z,13.20
2022-12-13T07:05:12.077Z,13.20
2022-12-13T07:10:22.485Z,11.27
2022-12-13T07:15:24.821Z,14.07
2022-12-13T07:20:26.571Z,15.37
2022-12-13T07:25:29.714Z,10.17
2022-12-13T07:30:34.551Z,9.90
2022-12-13T07:35:44.011Z,13.17
2022-12-13T07:40:45.756Z,11.00
2022-12-13T07:45:47.449Z,10.47
2022-12-13T07:50:54.554Z,10.47
2022-12-13T07:55:56.774Z,18.73
2022-12-13T08:01:03.649Z,13.43
2022-12-13T08:06:08.116Z,10.17
2022-12-13T08:11:12.766Z,12.00
2022-12-13T08:16:27.824Z,17.47
2022-12-13T08:21:54.490Z,14.83
2022-12-13T08:27:02.444Z,13.70
2022-12-13T08:32:09.006Z,20.00
2022-12-13T08:37:10.667Z,18.13
2022-12-13T08:42:18.176Z,21.57
2022-12-13T08:47:25.508Z,22.77
2022-12-13T08:52:28.185Z,20.20
2022-12-13T08:57:29.899Z,19.17
2022-12-13T09:02:31.620Z,17.13
2022-12-13T09:07:41.227Z,16.10
2022-12-13T09:12:43.206Z,13.30
2022-12-13T09:17:44.924Z,14.67
2022-12-13T09:23:01.729Z,19.47
2022-12-13T09:28:06.642Z,21.03
2022-12-13T09:33:18.165Z,22.67
2022-12-13T09:38:30.065Z,20.07
2022-12-13T09:43:42.990Z,21.27
2022-12-13T09:48:48.359Z,26.83
2022-12-13T09:53:52.776Z,18.43
2022-12-13T09:58:56.730Z,20.67
2022-12-13T10:04:00.075Z,18.20
2022-12-13T10:09:01.802Z,21.97
2022-12-13T10:14:12.844Z,20.43
2022-12-13T10:19:29.168Z,18.87
2022-12-13T10:25:00.204Z,14.18
2022-12-13T10:30:10.980Z,13.60
2022-12-13T10:35:20.844Z,12.05
2022-12-13T10:40:32.413Z,12.15
2022-12-13T10:45:35.310Z,9.18
2022-12-13T10:50:37.294Z,8.45
2022-12-13T10:55:39.104Z,6.28
2022-12-13T11:00:47.432Z,8.05
2022-12-13T11:06:03.252Z,6.63
2022-12-13T11:11:07.284Z,5.47
2022-12-13T11:16:26.844Z,6.68
2022-12-13T11:21:34.029Z,9.38
2022-12-13T11:26:39.420Z,11.68
2022-12-13T11:32:08.855Z,11.00
2022-12-13T11:37:13.327Z,10.05
2022-12-13T11:42:18.163Z,9.50
2022-12-13T11:47:26.935Z,8.90
2022-12-13T11:52:42.242Z,9.05
2022-12-13T11:57:55.483Z,9.25
2022-12-13T12:03:06.621Z,9.90
2022-12-13T12:08:40.617Z,12.05
2022-12-13T12:14:09.451Z,7.82
2022-12-13T12:19:14.717Z,7.68
2022-12-13T12:24:29.723Z,16.02
2022-12-13T12:29:46.583Z,6.95
2022-12-13T12:35:03.024Z,7.63
2022-12-13T12:41:15.798Z,8.20
2022-12-13T12:46:20.126Z,7.35
2022-12-13T12:51:28.808Z,7.40
2022-12-13T12:56:43.869Z,6.75
2022-12-13T13:02:07.312Z,6.18
2022-12-13T13:07:23.092Z,5.68
2022-12-13T13:12:29.034Z,5.93
2022-12-13T13:17:32.176Z,7.30
2022-12-13T13:22:44.322Z,6.63
2022-12-13T13:27:48.643Z,8.82
2022-12-13T13:32:53.307Z,11.07
2022-12-13T13:38:05.496Z,10.02
2022-12-13T13:43:10.201Z,9.57
2022-12-13T13:48:42.987Z,9.00
2022-12-13T13:53:44.594Z,8.77
2022-12-13T13:58:58.156Z,9.53
2022-12-13T14:04:18.293Z,11.83
2022-12-13T14:09:42.104Z,10.80
2022-12-13T14:15:01.299Z,10.15
2022-12-13T14:20:18.221Z,9.27
2022-12-13T14:25:52.330Z,8.85
2022-12-13T14:30:57.586Z,7.90
2022-12-13T14:36:01.795Z,8.03
2022-12-13T14:41:03.627Z,8.07
2022-12-13T14:46:07.253Z,8.97
2022-12-13T14:51:30.697Z,7.33
2022-12-13T14:56:32.901Z,6.53
2022-12-13T15:01:36.917Z,6.28
2022-12-13T15:06:39.574Z,6.97
2022-12-13T15:11:44.110Z,6.47
2022-12-13T15:16:50.584Z,6.38
2022-12-13T15:22:01.566Z,7.23
2022-12-13T15:27:08.226Z,8.87
2022-12-13T15:32:19.149Z,7.87
2022-12-13T15:37:28.220Z,10.77
2022-12-13T15:42:38.511Z,14.40
2022-12-13T15:47:45.559Z,10.70
2022-12-13T15:52:47.862Z,10.90
2022-12-13T15:57:55.246Z,10.33
2022-12-13T16:03:11.560Z,14.75
2022-12-13T16:08:31.310Z,16.20
2022-12-13T16:13:37.944Z,20.10
2022-12-13T16:18:46.817Z,19.40
2022-12-13T16:23:49.263Z,20.10
2022-12-13T16:28:51.241Z,18.27
2022-12-13T16:33:53.907Z,17.33
2022-12-13T16:38:55.560Z,18.30
2022-12-13T16:44:00.742Z,18.63
2022-12-13T16:49:08.953Z,22.30
2022-12-13T16:54:10.614Z,25.03
2022-12-13T16:59:20.680Z,24.37
2022-12-13T17:04:24.483Z,26.60
2022-12-13T17:09:26.199Z,23.33
2022-12-13T17:14:27.878Z,23.90
2022-12-13T17:19:29.567Z,25.13
2022-12-13T17:24:31.336Z,25.77
2022-12-13T17:29:33.897Z,23.93
2022-12-13T17:34:35.614Z,37.05
2022-12-13T17:39:37.652Z,25.77
2022-12-13T17:44:39.745Z,26.60
2022-12-13T17:49:41.444Z,28.37
2022-12-13T17:54:43.201Z,28.30
2022-12-13T17:59:44.912Z,27.77
2022-12-13T18:04:46.624Z,29.63
2022-12-13T18:09:48.380Z,26.87
2022-12-13T18:14:51.922Z,25.00
2022-12-13T18:19:53.621Z,22.00
2022-12-13T18:24:55.273Z,22.20
2022-12-13T18:29:56.939Z,23.23
2022-12-13T18:34:58.612Z,20.03
2022-12-13T18:40:00.268Z,21.43
2022-12-13T18:45:02.290Z,24.97
2022-12-13T18:50:04.282Z,23.27
2022-12-13T18:55:06.656Z,22.23
2022-12-13T19:00:09.123Z,24.80
2022-12-13T19:05:10.846Z,25.23
2022-12-13T19:10:12.519Z,23.70
2022-12-13T19:15:15.315Z,25.00
2022-12-13T19:20:18.051Z,24.23
2022-12-13T19:25:20.809Z,25.57
2022-12-13T19:30:23.816Z,21.37
2022-12-13T19:35:26.063Z,20.13
2022-12-13T19:40:27.804Z,21.97
2022-12-13T19:45:29.510Z,22.40
2022-12-13T19:50:31.179Z,22.43
2022-12-13T19:55:35.689Z,25.43
2022-12-13T20:00:37.428Z,28.33
2022-12-13T20:05:45.337Z,28.00
2022-12-13T20:10:47.724Z,31.67
2022-12-13T20:15:49.657Z,29.33
2022-12-13T20:21:10.991Z,23.60
2022-12-13T20:26:15.176Z,27.10
2022-12-13T20:31:38.114Z,26.47
2022-12-13T20:36:41.198Z,25.40
2022-12-13T20:41:42.902Z,23.93
2022-12-13T20:46:44.667Z,25.97
2022-12-13T20:51:46.344Z,25.87
2022-12-13T20:56:48.030Z,24.23
2022-12-13T21:01:49.847Z,23.40
2022-12-13T21:06:51.548Z,22.47
2022-12-13T21:11:53.280Z,22.20
2022-12-13T21:16:57.435Z,21.77
2022-12-13T21:21:59.342Z,22.77
2022-12-13T21:27:01.183Z,20.90
2022-12-13T21:32:03.094Z,20.50
2022-12-13T21:37:05.812Z,23.93
2022-12-13T21:42:07.475Z,22.73
2022-12-13T21:47:12.243Z,20.03
2022-12-13T21:52:14.542Z,19.40
2022-12-13T21:57:34.589Z,20.20
2022-12-13T22:02:36.374Z,22.57
2022-12-13T22:07:38.537Z,19.50
2022-12-13T22:12:41.386Z,19.50
2022-12-13T22:17:43.288Z,18.30
2022-12-13T22:22:45.416Z,17.00
2022-12-13T22:27:47.116Z,17.00
2022-12-13T22:32:48.792Z,25.80
2022-12-13T22:37:50.443Z,23.73
2022-12-13T22:42:52.109Z,28.87
2022-12-13T22:47:54.492Z,26.60
2022-12-13T22:52:56.188Z,25.23
2022-12-13T22:57:57.856Z,25.30
2022-12-13T23:02:59.558Z,26.57
2022-12-13T23:08:01.301Z,22.63
2022-12-13T23:13:03.020Z,27.33
2022-12-13T23:18:04.733Z,18.97
2022-12-13T23:23:06.424Z,24.67
2022-12-13T23:28:08.097Z,23.03
2022-12-13T23:33:09.788Z,25.40
2022-12-13T23:38:11.465Z,26.40
2022-12-13T23:43:13.122Z,25.63
2022-12-13T23:48:14.774Z,29.33
2022-12-13T23:53:16.466Z,29.13
2022-12-13T23:58:22.411Z,29.77
